Impacts TAF Board INFO
FOR SITUATIONAL AWARENESS. NOT TO BE USED FOR FLIGHT PLANNING PURPOSES.
IDs:

KJFK - New York/Kennedy Int, NY, US

Issued at 0838 UTC 22 Feb 2018
Updated at 0856 UTC 22 Feb 2018
Potential Impact None Slight Moderate High
Time<<22/21Z 22/22Z 22/23Z 23/00Z 23/01Z 23/02Z 23/03Z 23/04Z 23/05Z 23/06Z 23/07Z 23/08Z 23/09Z>>
Type PRVL
  [TEMP]  
PRVL
  [TEMP]  
PRVL
  [TEMP]  
PRVL PRVL PRVL PRVL PRVL PRVL PRVL PRVL PRVL PRVL
VIS 3
  [3]  
3
  [3]  
3
  [3]  
6 6 6 6 6 6 >6 >6 >6 >6
CIG 8
  [8]  
8
  [8]  
8
  [8]  
12 12 12 12 12 12 15 15 15 15
Cover OVC
  [OVC]  
OVC
  [OVC]  
OVC
  [OVC]  
OVC OVC OVC OVC OVC OVC OVC OVC OVC OVC
FltCat IFR
  [IFR]  
IFR
  [IFR]  
IFR
  [IFR]  
MVFR MVFR MVFR MVFR MVFR MVFR MVFR MVFR MVFR MVFR
WX -RA BR
  [-RA -PL]  
-RA BR
  [-RA -PL]  
-RA BR
  [-RA -PL]  
BR BR BR BR BR BR -- -- -- --
WDir 40
[40]
40
[40]
40
[40]
30 30 30 30 30 30 30 30 30 30
WSpd 12
  [12]  
12
  [12]  
12
  [12]  
10 10 10 10 10 10 8 8 8 8
WGst 18
  [18]  
18
  [18]  
18
  [18]  
-- -- -- -- -- -- -- -- -- --

Raw TAF
KJFK 220838Z 2209/2312 01010KT P6SM VCSH BKN040
  FM221300 03012G18KT P6SM -RA FEW015 BKN030
  FM221700 04014G21KT 5SM -RA BR OVC015
  FM222100 04012G18KT 3SM -RA BR OVC008
  TEMPO 2221/2224 3SM -RAPL
  FM230000 03010KT 6SM BR SCT008 OVC012
  FM230600 03008KT P6SM BKN015 OVC050


METAR Board
Radar Display
Forecast Discussion

FOR SITUATIONAL AWARENESS. NOT TO BE USED FOR FLIGHT PLANNING PURPOSES.